sensor_id;sensor_type;location;lat;lon;timestamp;temperature;humidity
15556;DHT22;7879;48.660;9.116;2024-03-25T00:00:47;3.60;99.90
15556;DHT22;7879;48.660;9.116;2024-03-25T00:03:13;3.70;99.90
15556;DHT22;7879;48.660;9.116;2024-03-25T00:05:39;3.70;99.90
15556;DHT22;7879;48.660;9.116;2024-03-25T00:08:05;3.70;99.90
15556;DHT22;7879;48.660;9.116;2024-03-25T00:10:31;3.70;99.90
15556;DHT22;7879;48.660;9.116;2024-03-25T00:12:57;3.70;99.90
15556;DHT22;7879;48.660;9.116;2024-03-25T00:15:23;3.60;99.90
15556;DHT22;7879;48.660;9.116;2024-03-25T00:17:51;3.60;99.90
15556;DHT22;7879;48.660;9.116;2024-03-25T00:20:17;3.70;99.90
15556;DHT22;7879;48.660;9.116;2024-03-25T00:22:43;3.60;99.90
15556;DHT22;7879;48.660;9.116;2024-03-25T00:25:10;3.70;99.90
15556;DHT22;7879;48.660;9.116;2024-03-25T00:27:36;3.60;99.90
15556;DHT22;7879;48.660;9.116;2024-03-25T00:30:01;3.60;99.90
15556;DHT22;7879;48.660;9.116;2024-03-25T00:32:28;3.60;99.90
15556;DHT22;7879;48.660;9.116;2024-03-25T00:34:54;3.60;99.90
15556;DHT22;7879;48.660;9.116;2024-03-25T00:37:20;3.60;99.90
15556;DHT22;7879;48.660;9.116;2024-03-25T00:39:46;3.60;99.90
15556;DHT22;7879;48.660;9.116;2024-03-25T00:42:11;3.60;99.90
15556;DHT22;7879;48.660;9.116;2024-03-25T00:44:38;3.60;99.90
15556;DHT22;7879;48.660;9.116;2024-03-25T00:47:06;3.60;99.90
15556;DHT22;7879;48.660;9.116;2024-03-25T00:49:32;3.60;99.90
15556;DHT22;7879;48.660;9.116;2024-03-25T00:51:58;3.50;99.90
15556;DHT22;7879;48.660;9.116;2024-03-25T00:54:24;3.50;99.90
15556;DHT22;7879;48.660;9.116;2024-03-25T00:56:50;3.50;99.90
15556;DHT22;7879;48.660;9.116;2024-03-25T00:59:17;3.50;99.90
15556;DHT22;7879;48.660;9.116;2024-03-25T01:01:43;3.50;99.90
15556;DHT22;7879;48.660;9.116;2024-03-25T01:04:09;3.50;99.90
15556;DHT22;7879;48.660;9.116;2024-03-25T01:06:35;3.50;99.90
15556;DHT22;7879;48.660;9.116;2024-03-25T01:09:01;3.50;99.90
15556;DHT22;7879;48.660;9.116;2024-03-25T01:11:27;3.40;99.90
15556;DHT22;7879;48.660;9.116;2024-03-25T01:13:52;3.40;99.90
15556;DHT22;7879;48.660;9.116;2024-03-25T01:16:18;3.40;99.90
15556;DHT22;7879;48.660;9.116;2024-03-25T01:18:44;3.40;99.90
15556;DHT22;7879;48.660;9.116;2024-03-25T01:21:10;3.40;99.90
15556;DHT22;7879;48.660;9.116;2024-03-25T01:23:36;3.40;99.90
15556;DHT22;7879;48.660;9.116;2024-03-25T01:26:01;3.40;99.90
15556;DHT22;7879;48.660;9.116;2024-03-25T01:28:27;3.40;99.90
15556;DHT22;7879;48.660;9.116;2024-03-25T01:30:53;3.40;99.90
15556;DHT22;7879;48.660;9.116;2024-03-25T01:33:19;3.30;99.90
15556;DHT22;7879;48.660;9.116;2024-03-25T01:35:45;3.30;99.90
15556;DHT22;7879;48.660;9.116;2024-03-25T01:38:11;3.30;99.90
15556;DHT22;7879;48.660;9.116;2024-03-25T01:40:37;3.30;99.90
15556;DHT22;7879;48.660;9.116;2024-03-25T01:43:03;3.30;99.90
15556;DHT22;7879;48.660;9.116;2024-03-25T01:45:31;3.30;99.90
15556;DHT22;7879;48.660;9.116;2024-03-25T01:47:59;3.30;99.90
15556;DHT22;7879;48.660;9.116;2024-03-25T01:50:25;3.30;99.90
15556;DHT22;7879;48.660;9.116;2024-03-25T01:52:52;3.30;99.90
15556;DHT22;7879;48.660;9.116;2024-03-25T01:55:21;3.30;99.90
15556;DHT22;7879;48.660;9.116;2024-03-25T01:57:50;3.30;99.90
15556;DHT22;7879;48.660;9.116;2024-03-25T02:00:17;3.40;99.90
15556;DHT22;7879;48.660;9.116;2024-03-25T02:02:43;3.40;99.90
15556;DHT22;7879;48.660;9.116;2024-03-25T02:05:17;3.40;99.90
15556;DHT22;7879;48.660;9.116;2024-03-25T02:07:44;3.40;99.90
15556;DHT22;7879;48.660;9.116;2024-03-25T02:10:10;3.40;99.90
15556;DHT22;7879;48.660;9.116;2024-03-25T02:12:37;3.40;99.90
15556;DHT22;7879;48.660;9.116;2024-03-25T02:15:05;3.40;99.90
15556;DHT22;7879;48.660;9.116;2024-03-25T02:17:31;3.40;99.90
15556;DHT22;7879;48.660;9.116;2024-03-25T02:19:57;3.40;99.90
15556;DHT22;7879;48.660;9.116;2024-03-25T02:22:22;3.40;99.90
15556;DHT22;7879;48.660;9.116;2024-03-25T02:24:51;3.40;99.90
15556;DHT22;7879;48.660;9.116;2024-03-25T02:27:18;3.40;99.90
15556;DHT22;7879;48.660;9.116;2024-03-25T02:29:44;3.40;99.90
15556;DHT22;7879;48.660;9.116;2024-03-25T02:32:10;3.40;99.90
15556;DHT22;7879;48.660;9.116;2024-03-25T02:34:38;3.40;99.90
15556;DHT22;7879;48.660;9.116;2024-03-25T02:37:05;3.40;99.90
15556;DHT22;7879;48.660;9.116;2024-03-25T02:39:32;3.40;99.90
15556;DHT22;7879;48.660;9.116;2024-03-25T02:41:58;3.40;99.90
15556;DHT22;7879;48.660;9.116;2024-03-25T02:44:24;3.40;99.90
15556;DHT22;7879;48.660;9.116;2024-03-25T02:46:51;3.40;99.90
15556;DHT22;7879;48.660;9.116;2024-03-25T02:49:18;3.40;99.90
15556;DHT22;7879;48.660;9.116;2024-03-25T02:51:43;3.40;99.90
15556;DHT22;7879;48.660;9.116;2024-03-25T02:54:09;3.40;99.90
15556;DHT22;7879;48.660;9.116;2024-03-25T02:56:35;3.40;99.90
15556;DHT22;7879;48.660;9.116;2024-03-25T02:59:01;3.40;99.90
15556;DHT22;7879;48.660;9.116;2024-03-25T03:01:27;3.40;99.90
15556;DHT22;7879;48.660;9.116;2024-03-25T03:03:53;3.40;99.90
15556;DHT22;7879;48.660;9.116;2024-03-25T03:06:19;3.40;99.90
15556;DHT22;7879;48.660;9.116;2024-03-25T03:08:45;3.40;99.90
15556;DHT22;7879;48.660;9.116;2024-03-25T03:11:11;3.40;99.90
15556;DHT22;7879;48.660;9.116;2024-03-25T03:13:36;3.30;99.90
15556;DHT22;7879;48.660;9.116;2024-03-25T03:16:02;3.30;99.90
15556;DHT22;7879;48.660;9.116;2024-03-25T03:18:28;3.30;99.90
15556;DHT22;7879;48.660;9.116;2024-03-25T03:20:54;3.30;99.90
15556;DHT22;7879;48.660;9.116;2024-03-25T03:23:22;3.30;99.90
15556;DHT22;7879;48.660;9.116;2024-03-25T03:25:48;3.20;99.90
15556;DHT22;7879;48.660;9.116;2024-03-25T03:28:14;3.20;99.90
15556;DHT22;7879;48.660;9.116;2024-03-25T03:30:41;3.20;99.90
15556;DHT22;7879;48.660;9.116;2024-03-25T03:33:07;3.20;99.90
15556;DHT22;7879;48.660;9.116;2024-03-25T03:35:33;3.20;99.90
15556;DHT22;7879;48.660;9.116;2024-03-25T03:37:59;3.20;99.90
15556;DHT22;7879;48.660;9.116;2024-03-25T03:40:25;3.20;99.90
15556;DHT22;7879;48.660;9.116;2024-03-25T03:42:51;3.20;99.90
15556;DHT22;7879;48.660;9.116;2024-03-25T03:45:17;3.20;99.90
15556;DHT22;7879;48.660;9.116;2024-03-25T03:47:43;3.20;99.90
15556;DHT22;7879;48.660;9.116;2024-03-25T03:50:09;3.20;99.90
15556;DHT22;7879;48.660;9.116;2024-03-25T03:52:35;3.20;99.90
15556;DHT22;7879;48.660;9.116;2024-03-25T03:55:01;3.20;99.90
15556;DHT22;7879;48.660;9.116;2024-03-25T03:57:27;3.20;99.90
15556;DHT22;7879;48.660;9.116;2024-03-25T03:59:53;3.20;99.90
15556;DHT22;7879;48.660;9.116;2024-03-25T04:02:18;3.20;99.90
15556;DHT22;7879;48.660;9.116;2024-03-25T04:04:44;3.20;99.90
15556;DHT22;7879;48.660;9.116;2024-03-25T04:07:10;3.20;99.90
15556;DHT22;7879;48.660;9.116;2024-03-25T04:09:36;3.20;99.90
15556;DHT22;7879;48.660;9.116;2024-03-25T04:12:02;3.20;99.90
15556;DHT22;7879;48.660;9.116;2024-03-25T04:14:27;3.20;99.90
15556;DHT22;7879;48.660;9.116;2024-03-25T04:16:53;3.20;99.90
15556;DHT22;7879;48.660;9.116;2024-03-25T04:19:23;3.20;99.90
15556;DHT22;7879;48.660;9.116;2024-03-25T04:21:49;3.20;99.90
15556;DHT22;7879;48.660;9.116;2024-03-25T04:24:15;3.20;99.90
15556;DHT22;7879;48.660;9.116;2024-03-25T04:26:41;3.10;99.90
15556;DHT22;7879;48.660;9.116;2024-03-25T04:29:06;3.10;99.90
15556;DHT22;7879;48.660;9.116;2024-03-25T04:31:32;3.10;99.90
15556;DHT22;7879;48.660;9.116;2024-03-25T04:33:58;3.10;99.90
15556;DHT22;7879;48.660;9.116;2024-03-25T04:36:24;3.10;99.90
15556;DHT22;7879;48.660;9.116;2024-03-25T04:38:50;3.10;99.90
15556;DHT22;7879;48.660;9.116;2024-03-25T04:41:16;3.10;99.90
15556;DHT22;7879;48.660;9.116;2024-03-25T04:43:42;3.10;99.90
15556;DHT22;7879;48.660;9.116;2024-03-25T04:46:08;3.10;99.90
15556;DHT22;7879;48.660;9.116;2024-03-25T04:48:34;3.00;99.90
15556;DHT22;7879;48.660;9.116;2024-03-25T04:51:00;3.00;99.90
15556;DHT22;7879;48.660;9.116;2024-03-25T04:53:26;3.00;99.90
15556;DHT22;7879;48.660;9.116;2024-03-25T04:55:51;3.00;99.90
15556;DHT22;7879;48.660;9.116;2024-03-25T04:58:17;3.00;99.90
15556;DHT22;7879;48.660;9.116;2024-03-25T05:00:43;3.00;99.90
15556;DHT22;7879;48.660;9.116;2024-03-25T05:03:09;2.90;99.90
15556;DHT22;7879;48.660;9.116;2024-03-25T05:05:35;2.90;99.90
15556;DHT22;7879;48.660;9.116;2024-03-25T05:08:01;2.90;99.90
15556;DHT22;7879;48.660;9.116;2024-03-25T05:10:29;2.90;99.90
15556;DHT22;7879;48.660;9.116;2024-03-25T05:12:54;2.90;99.90
15556;DHT22;7879;48.660;9.116;2024-03-25T05:15:21;2.90;99.90
15556;DHT22;7879;48.660;9.116;2024-03-25T05:17:47;2.80;99.90
15556;DHT22;7879;48.660;9.116;2024-03-25T05:20:12;2.80;99.90
15556;DHT22;7879;48.660;9.116;2024-03-25T05:22:38;2.80;99.90
15556;DHT22;7879;48.660;9.116;2024-03-25T05:25:04;2.80;99.90
15556;DHT22;7879;48.660;9.116;2024-03-25T05:27:30;2.80;99.90
15556;DHT22;7879;48.660;9.116;2024-03-25T05:29:56;2.80;99.90
15556;DHT22;7879;48.660;9.116;2024-03-25T05:32:22;2.80;99.90
15556;DHT22;7879;48.660;9.116;2024-03-25T05:34:47;2.80;99.90
15556;DHT22;7879;48.660;9.116;2024-03-25T05:37:16;2.90;99.90
15556;DHT22;7879;48.660;9.116;2024-03-25T05:39:42;2.90;99.90
15556;DHT22;7879;48.660;9.116;2024-03-25T05:42:08;2.90;99.90
15556;DHT22;7879;48.660;9.116;2024-03-25T05:44:34;2.90;99.90
15556;DHT22;7879;48.660;9.116;2024-03-25T05:46:59;2.90;99.90
15556;DHT22;7879;48.660;9.116;2024-03-25T05:49:25;2.90;99.90
15556;DHT22;7879;48.660;9.116;2024-03-25T05:51:51;2.90;99.90
15556;DHT22;7879;48.660;9.116;2024-03-25T05:54:17;2.90;99.90
15556;DHT22;7879;48.660;9.116;2024-03-25T05:56:43;2.90;99.90
15556;DHT22;7879;48.660;9.116;2024-03-25T05:59:09;2.90;99.90
15556;DHT22;7879;48.660;9.116;2024-03-25T06:01:35;3.00;99.90
15556;DHT22;7879;48.660;9.116;2024-03-25T06:04:03;3.00;99.90
15556;DHT22;7879;48.660;9.116;2024-03-25T06:06:29;3.00;99.90
15556;DHT22;7879;48.660;9.116;2024-03-25T06:08:55;3.00;99.90
15556;DHT22;7879;48.660;9.116;2024-03-25T06:11:21;3.00;99.90
15556;DHT22;7879;48.660;9.116;2024-03-25T06:13:47;3.00;99.90
15556;DHT22;7879;48.660;9.116;2024-03-25T06:16:13;3.00;99.90
15556;DHT22;7879;48.660;9.116;2024-03-25T06:18:40;3.00;99.90
15556;DHT22;7879;48.660;9.116;2024-03-25T06:21:06;3.00;99.90
15556;DHT22;7879;48.660;9.116;2024-03-25T06:23:32;3.10;99.90
15556;DHT22;7879;48.660;9.116;2024-03-25T06:25:58;3.10;99.90
15556;DHT22;7879;48.660;9.116;2024-03-25T06:28:24;3.10;99.90
15556;DHT22;7879;48.660;9.116;2024-03-25T06:30:51;3.10;99.90
15556;DHT22;7879;48.660;9.116;2024-03-25T06:33:36;3.20;99.90
15556;DHT22;7879;48.660;9.116;2024-03-25T06:36:21;3.20;99.90
15556;DHT22;7879;48.660;9.116;2024-03-25T06:38:47;3.20;99.90
15556;DHT22;7879;48.660;9.116;2024-03-25T06:41:13;3.30;99.90
15556;DHT22;7879;48.660;9.116;2024-03-25T06:43:39;3.30;99.90
15556;DHT22;7879;48.660;9.116;2024-03-25T06:46:05;3.30;99.90
15556;DHT22;7879;48.660;9.116;2024-03-25T06:48:32;3.40;99.90
15556;DHT22;7879;48.660;9.116;2024-03-25T06:50:59;3.50;99.90
15556;DHT22;7879;48.660;9.116;2024-03-25T06:53:25;3.50;99.90
15556;DHT22;7879;48.660;9.116;2024-03-25T06:56:01;3.50;99.90
15556;DHT22;7879;48.660;9.116;2024-03-25T06:58:27;3.50;99.90
15556;DHT22;7879;48.660;9.116;2024-03-25T07:00:54;3.60;99.90
15556;DHT22;7879;48.660;9.116;2024-03-25T07:03:21;3.60;99.90
15556;DHT22;7879;48.660;9.116;2024-03-25T07:05:51;3.60;99.90
15556;DHT22;7879;48.660;9.116;2024-03-25T07:08:18;3.70;99.90
15556;DHT22;7879;48.660;9.116;2024-03-25T07:10:45;3.70;99.90
15556;DHT22;7879;48.660;9.116;2024-03-25T07:13:11;3.70;99.90
15556;DHT22;7879;48.660;9.116;2024-03-25T07:15:38;3.70;99.90
15556;DHT22;7879;48.660;9.116;2024-03-25T07:18:05;3.80;99.90
15556;DHT22;7879;48.660;9.116;2024-03-25T07:20:32;3.80;99.90
15556;DHT22;7879;48.660;9.116;2024-03-25T07:22:58;3.90;99.90
15556;DHT22;7879;48.660;9.116;2024-03-25T07:25:24;3.90;99.90
15556;DHT22;7879;48.660;9.116;2024-03-25T07:27:50;3.90;99.90
15556;DHT22;7879;48.660;9.116;2024-03-25T07:30:16;4.00;99.90
15556;DHT22;7879;48.660;9.116;2024-03-25T07:32:42;4.00;99.90
15556;DHT22;7879;48.660;9.116;2024-03-25T07:35:11;4.00;99.90
15556;DHT22;7879;48.660;9.116;2024-03-25T07:37:37;4.00;99.90
15556;DHT22;7879;48.660;9.116;2024-03-25T07:40:03;4.10;99.90
15556;DHT22;7879;48.660;9.116;2024-03-25T07:42:31;4.10;99.90
15556;DHT22;7879;48.660;9.116;2024-03-25T07:44:57;4.20;99.90
15556;DHT22;7879;48.660;9.116;2024-03-25T07:47:23;4.20;99.90
15556;DHT22;7879;48.660;9.116;2024-03-25T07:49:49;4.20;99.90
15556;DHT22;7879;48.660;9.116;2024-03-25T07:52:15;4.30;99.90
15556;DHT22;7879;48.660;9.116;2024-03-25T07:54:41;4.40;99.90
15556;DHT22;7879;48.660;9.116;2024-03-25T07:57:08;4.40;99.90
15556;DHT22;7879;48.660;9.116;2024-03-25T07:59:35;4.50;99.90
15556;DHT22;7879;48.660;9.116;2024-03-25T08:02:01;4.50;99.90
15556;DHT22;7879;48.660;9.116;2024-03-25T08:04:26;4.60;99.90
15556;DHT22;7879;48.660;9.116;2024-03-25T08:06:52;4.60;99.90
15556;DHT22;7879;48.660;9.116;2024-03-25T08:09:18;4.70;99.90
15556;DHT22;7879;48.660;9.116;2024-03-25T08:11:45;4.80;99.90
15556;DHT22;7879;48.660;9.116;2024-03-25T08:14:11;4.80;99.90
15556;DHT22;7879;48.660;9.116;2024-03-25T08:16:37;5.00;99.90
15556;DHT22;7879;48.660;9.116;2024-03-25T08:19:04;5.10;99.90
15556;DHT22;7879;48.660;9.116;2024-03-25T08:21:30;5.10;99.90
15556;DHT22;7879;48.660;9.116;2024-03-25T08:23:56;5.20;99.90
15556;DHT22;7879;48.660;9.116;2024-03-25T08:26:22;5.30;99.90
15556;DHT22;7879;48.660;9.116;2024-03-25T08:28:48;5.30;99.90
15556;DHT22;7879;48.660;9.116;2024-03-25T08:31:16;5.30;99.90
15556;DHT22;7879;48.660;9.116;2024-03-25T08:33:42;5.40;99.90
15556;DHT22;7879;48.660;9.116;2024-03-25T08:36:08;5.50;99.90
15556;DHT22;7879;48.660;9.116;2024-03-25T08:38:34;5.60;99.90
15556;DHT22;7879;48.660;9.116;2024-03-25T08:41:00;5.60;99.90
15556;DHT22;7879;48.660;9.116;2024-03-25T08:43:26;5.70;99.90
15556;DHT22;7879;48.660;9.116;2024-03-25T08:45:52;5.80;99.90
15556;DHT22;7879;48.660;9.116;2024-03-25T08:48:18;5.90;99.90
15556;DHT22;7879;48.660;9.116;2024-03-25T08:50:44;6.00;99.90
15556;DHT22;7879;48.660;9.116;2024-03-25T08:53:10;6.10;99.90
15556;DHT22;7879;48.660;9.116;2024-03-25T08:55:36;6.20;99.90
15556;DHT22;7879;48.660;9.116;2024-03-25T08:58:02;6.30;99.90
15556;DHT22;7879;48.660;9.116;2024-03-25T09:00:28;6.40;99.90
15556;DHT22;7879;48.660;9.116;2024-03-25T09:02:54;6.40;99.90
15556;DHT22;7879;48.660;9.116;2024-03-25T09:05:21;6.60;99.90
15556;DHT22;7879;48.660;9.116;2024-03-25T09:07:50;6.70;99.90
15556;DHT22;7879;48.660;9.116;2024-03-25T09:10:20;6.80;99.90
15556;DHT22;7879;48.660;9.116;2024-03-25T09:13:05;6.90;99.90
15556;DHT22;7879;48.660;9.116;2024-03-25T09:15:31;7.10;99.90
15556;DHT22;7879;48.660;9.116;2024-03-25T09:17:57;7.20;99.90
15556;DHT22;7879;48.660;9.116;2024-03-25T09:20:23;7.20;99.90
15556;DHT22;7879;48.660;9.116;2024-03-25T09:22:49;7.20;99.90
15556;DHT22;7879;48.660;9.116;2024-03-25T09:25:16;7.10;99.90
15556;DHT22;7879;48.660;9.116;2024-03-25T09:27:49;7.00;99.90
15556;DHT22;7879;48.660;9.116;2024-03-25T09:30:16;6.90;99.90
15556;DHT22;7879;48.660;9.116;2024-03-25T09:32:44;6.90;99.90
15556;DHT22;7879;48.660;9.116;2024-03-25T09:35:10;7.00;99.90
15556;DHT22;7879;48.660;9.116;2024-03-25T09:37:36;7.10;99.90
15556;DHT22;7879;48.660;9.116;2024-03-25T09:40:03;7.20;99.90
15556;DHT22;7879;48.660;9.116;2024-03-25T09:42:47;7.50;99.90
15556;DHT22;7879;48.660;9.116;2024-03-25T09:45:16;7.60;99.90
15556;DHT22;7879;48.660;9.116;2024-03-25T09:47:46;7.60;99.90
15556;DHT22;7879;48.660;9.116;2024-03-25T09:50:15;7.60;99.90
15556;DHT22;7879;48.660;9.116;2024-03-25T09:52:48;7.60;99.90
15556;DHT22;7879;48.660;9.116;2024-03-25T09:55:17;7.90;99.90
15556;DHT22;7879;48.660;9.116;2024-03-25T09:57:44;8.10;99.90
15556;DHT22;7879;48.660;9.116;2024-03-25T10:00:11;8.00;99.90
15556;DHT22;7879;48.660;9.116;2024-03-25T10:02:38;8.10;99.90
15556;DHT22;7879;48.660;9.116;2024-03-25T10:05:05;8.60;99.90
15556;DHT22;7879;48.660;9.116;2024-03-25T10:07:33;9.40;99.90
15556;DHT22;7879;48.660;9.116;2024-03-25T10:09:59;9.80;99.90
15556;DHT22;7879;48.660;9.116;2024-03-25T10:12:25;10.10;99.90
15556;DHT22;7879;48.660;9.116;2024-03-25T10:14:51;10.50;99.90
15556;DHT22;7879;48.660;9.116;2024-03-25T10:17:17;10.70;99.90
15556;DHT22;7879;48.660;9.116;2024-03-25T10:19:42;10.90;99.90
15556;DHT22;7879;48.660;9.116;2024-03-25T10:22:09;11.10;99.90
15556;DHT22;7879;48.660;9.116;2024-03-25T10:24:42;11.20;99.90
15556;DHT22;7879;48.660;9.116;2024-03-25T10:27:22;11.40;99.90
15556;DHT22;7879;48.660;9.116;2024-03-25T10:29:55;11.50;99.90
15556;DHT22;7879;48.660;9.116;2024-03-25T10:32:21;11.70;99.80
15556;DHT22;7879;48.660;9.116;2024-03-25T10:34:50;11.80;99.90
15556;DHT22;7879;48.660;9.116;2024-03-25T10:37:17;11.90;99.00
15556;DHT22;7879;48.660;9.116;2024-03-25T10:39:48;11.90;99.10
15556;DHT22;7879;48.660;9.116;2024-03-25T10:42:18;11.90;98.70
15556;DHT22;7879;48.660;9.116;2024-03-25T10:44:45;12.10;98.80
15556;DHT22;7879;48.660;9.116;2024-03-25T10:47:20;12.20;99.90
15556;DHT22;7879;48.660;9.116;2024-03-25T10:49:56;12.40;99.00
15556;DHT22;7879;48.660;9.116;2024-03-25T10:52:27;12.60;99.40
15556;DHT22;7879;48.660;9.116;2024-03-25T10:54:55;13.00;99.20
15556;DHT22;7879;48.660;9.116;2024-03-25T10:57:22;13.10;98.30
15556;DHT22;7879;48.660;9.116;2024-03-25T10:59:49;13.00;98.10
15556;DHT22;7879;48.660;9.116;2024-03-25T11:02:15;13.00;97.20
15556;DHT22;7879;48.660;9.116;2024-03-25T11:04:44;13.30;97.60
15556;DHT22;7879;48.660;9.116;2024-03-25T11:07:14;13.60;97.20
15556;DHT22;7879;48.660;9.116;2024-03-25T11:09:41;13.60;96.20
15556;DHT22;7879;48.660;9.116;2024-03-25T11:12:11;13.60;96.50
15556;DHT22;7879;48.660;9.116;2024-03-25T11:14:38;13.20;93.50
15556;DHT22;7879;48.660;9.116;2024-03-25T11:17:14;12.50;92.00
15556;DHT22;7879;48.660;9.116;2024-03-25T11:19:41;12.00;93.00
15556;DHT22;7879;48.660;9.116;2024-03-25T11:22:09;11.60;93.50
15556;DHT22;7879;48.660;9.116;2024-03-25T11:24:43;11.50;95.20
15556;DHT22;7879;48.660;9.116;2024-03-25T11:27:09;11.90;95.40
15556;DHT22;7879;48.660;9.116;2024-03-25T11:29:35;11.90;94.20
15556;DHT22;7879;48.660;9.116;2024-03-25T11:32:05;11.70;94.20
15556;DHT22;7879;48.660;9.116;2024-03-25T11:34:31;11.40;95.10
15556;DHT22;7879;48.660;9.116;2024-03-25T11:36:57;11.50;96.70
15556;DHT22;7879;48.660;9.116;2024-03-25T11:39:24;11.60;96.70
15556;DHT22;7879;48.660;9.116;2024-03-25T11:41:54;11.70;96.50
15556;DHT22;7879;48.660;9.116;2024-03-25T11:44:20;11.90;95.90
15556;DHT22;7879;48.660;9.116;2024-03-25T11:46:50;11.90;95.90
15556;DHT22;7879;48.660;9.116;2024-03-25T11:49:16;11.90;96.20
15556;DHT22;7879;48.660;9.116;2024-03-25T11:51:45;12.10;96.40
15556;DHT22;7879;48.660;9.116;2024-03-25T11:54:12;12.50;96.50
15556;DHT22;7879;48.660;9.116;2024-03-25T11:56:39;12.70;95.60
15556;DHT22;7879;48.660;9.116;2024-03-25T11:59:05;12.70;95.10
15556;DHT22;7879;48.660;9.116;2024-03-25T12:01:31;12.50;95.50
15556;DHT22;7879;48.660;9.116;2024-03-25T12:03:57;12.40;95.30
15556;DHT22;7879;48.660;9.116;2024-03-25T12:06:23;12.60;95.10
15556;DHT22;7879;48.660;9.116;2024-03-25T12:08:49;12.70;95.20
15556;DHT22;7879;48.660;9.116;2024-03-25T12:11:34;12.90;95.20
15556;DHT22;7879;48.660;9.116;2024-03-25T12:14:01;13.10;94.10
15556;DHT22;7879;48.660;9.116;2024-03-25T12:16:27;13.10;93.00
15556;DHT22;7879;48.660;9.116;2024-03-25T12:18:53;13.10;93.40
15556;DHT22;7879;48.660;9.116;2024-03-25T12:21:20;13.10;92.40
15556;DHT22;7879;48.660;9.116;2024-03-25T12:23:47;13.00;93.20
15556;DHT22;7879;48.660;9.116;2024-03-25T12:26:13;12.80;91.90
15556;DHT22;7879;48.660;9.116;2024-03-25T12:28:40;12.60;91.80
15556;DHT22;7879;48.660;9.116;2024-03-25T12:31:09;12.30;92.00
15556;DHT22;7879;48.660;9.116;2024-03-25T12:33:49;12.20;92.10
15556;DHT22;7879;48.660;9.116;2024-03-25T12:36:15;12.10;92.20
15556;DHT22;7879;48.660;9.116;2024-03-25T12:38:41;12.00;92.40
15556;DHT22;7879;48.660;9.116;2024-03-25T12:41:11;11.90;92.00
15556;DHT22;7879;48.660;9.116;2024-03-25T12:43:43;11.70;91.60
15556;DHT22;7879;48.660;9.116;2024-03-25T12:46:09;11.70;92.00
15556;DHT22;7879;48.660;9.116;2024-03-25T12:48:36;11.80;90.10
15556;DHT22;7879;48.660;9.116;2024-03-25T12:51:02;11.80;90.50
15556;DHT22;7879;48.660;9.116;2024-03-25T12:53:28;12.00;89.90
15556;DHT22;7879;48.660;9.116;2024-03-25T12:55:54;12.00;90.20
15556;DHT22;7879;48.660;9.116;2024-03-25T12:58:20;11.90;90.10
15556;DHT22;7879;48.660;9.116;2024-03-25T13:00:45;11.80;90.30
15556;DHT22;7879;48.660;9.116;2024-03-25T13:03:11;11.80;90.00
15556;DHT22;7879;48.660;9.116;2024-03-25T13:05:38;11.70;90.40
15556;DHT22;7879;48.660;9.116;2024-03-25T13:08:04;11.70;90.80
15556;DHT22;7879;48.660;9.116;2024-03-25T13:10:31;11.60;90.10
15556;DHT22;7879;48.660;9.116;2024-03-25T13:12:57;11.60;90.20
15556;DHT22;7879;48.660;9.116;2024-03-25T13:15:23;11.60;90.80
15556;DHT22;7879;48.660;9.116;2024-03-25T13:17:49;11.70;91.10
15556;DHT22;7879;48.660;9.116;2024-03-25T13:20:15;11.80;89.50
15556;DHT22;7879;48.660;9.116;2024-03-25T13:22:41;11.70;89.30
15556;DHT22;7879;48.660;9.116;2024-03-25T13:25:09;11.60;89.90
15556;DHT22;7879;48.660;9.116;2024-03-25T13:27:35;11.60;90.30
15556;DHT22;7879;48.660;9.116;2024-03-25T13:30:01;11.70;90.50
15556;DHT22;7879;48.660;9.116;2024-03-25T13:32:26;11.60;90.10
15556;DHT22;7879;48.660;9.116;2024-03-25T13:34:52;11.50;90.60
15556;DHT22;7879;48.660;9.116;2024-03-25T13:37:18;11.50;90.90
15556;DHT22;7879;48.660;9.116;2024-03-25T13:39:44;11.50;90.70
15556;DHT22;7879;48.660;9.116;2024-03-25T13:42:11;11.40;90.80
15556;DHT22;7879;48.660;9.116;2024-03-25T13:44:37;11.50;90.60
15556;DHT22;7879;48.660;9.116;2024-03-25T13:47:04;11.60;90.80
15556;DHT22;7879;48.660;9.116;2024-03-25T13:49:29;11.70;90.80
15556;DHT22;7879;48.660;9.116;2024-03-25T13:51:58;11.70;90.60
15556;DHT22;7879;48.660;9.116;2024-03-25T13:54:27;11.60;90.90
15556;DHT22;7879;48.660;9.116;2024-03-25T13:56:53;11.70;90.40
15556;DHT22;7879;48.660;9.116;2024-03-25T13:59:19;11.70;90.90
15556;DHT22;7879;48.660;9.116;2024-03-25T14:01:45;11.80;90.60
15556;DHT22;7879;48.660;9.116;2024-03-25T14:04:11;11.80;90.30
15556;DHT22;7879;48.660;9.116;2024-03-25T14:06:37;11.70;90.10
15556;DHT22;7879;48.660;9.116;2024-03-25T14:09:04;11.70;90.40
15556;DHT22;7879;48.660;9.116;2024-03-25T14:11:36;11.70;89.60
15556;DHT22;7879;48.660;9.116;2024-03-25T14:14:02;11.50;90.10
15556;DHT22;7879;48.660;9.116;2024-03-25T14:16:28;11.60;90.70
15556;DHT22;7879;48.660;9.116;2024-03-25T14:18:54;11.60;90.50
15556;DHT22;7879;48.660;9.116;2024-03-25T14:21:20;11.70;90.50
15556;DHT22;7879;48.660;9.116;2024-03-25T14:23:46;11.70;90.70
15556;DHT22;7879;48.660;9.116;2024-03-25T14:26:12;11.70;90.60
15556;DHT22;7879;48.660;9.116;2024-03-25T14:28:40;11.70;90.80
15556;DHT22;7879;48.660;9.116;2024-03-25T14:31:06;11.60;90.20
15556;DHT22;7879;48.660;9.116;2024-03-25T14:33:32;11.50;90.80
15556;DHT22;7879;48.660;9.116;2024-03-25T14:35:58;11.50;91.00
15556;DHT22;7879;48.660;9.116;2024-03-25T14:38:24;11.50;90.80
15556;DHT22;7879;48.660;9.116;2024-03-25T14:40:51;11.40;90.80
15556;DHT22;7879;48.660;9.116;2024-03-25T14:43:18;11.50;91.10
15556;DHT22;7879;48.660;9.116;2024-03-25T14:45:46;11.40;90.40
15556;DHT22;7879;48.660;9.116;2024-03-25T14:48:12;11.40;91.10
15556;DHT22;7879;48.660;9.116;2024-03-25T14:50:38;11.40;91.00
15556;DHT22;7879;48.660;9.116;2024-03-25T14:53:04;11.40;90.20
15556;DHT22;7879;48.660;9.116;2024-03-25T14:55:30;11.40;90.70
15556;DHT22;7879;48.660;9.116;2024-03-25T14:57:56;11.40;90.00
15556;DHT22;7879;48.660;9.116;2024-03-25T15:00:22;11.30;90.50
15556;DHT22;7879;48.660;9.116;2024-03-25T15:02:51;11.40;90.10
15556;DHT22;7879;48.660;9.116;2024-03-25T15:05:17;11.40;90.50
15556;DHT22;7879;48.660;9.116;2024-03-25T15:07:44;11.50;90.70
15556;DHT22;7879;48.660;9.116;2024-03-25T15:10:10;11.50;90.70
15556;DHT22;7879;48.660;9.116;2024-03-25T15:12:37;11.50;90.10
15556;DHT22;7879;48.660;9.116;2024-03-25T15:15:04;11.40;89.90
15556;DHT22;7879;48.660;9.116;2024-03-25T15:17:32;11.40;90.00
15556;DHT22;7879;48.660;9.116;2024-03-25T15:19:58;11.40;90.00
15556;DHT22;7879;48.660;9.116;2024-03-25T15:22:24;11.30;89.10
15556;DHT22;7879;48.660;9.116;2024-03-25T15:24:50;11.20;89.50
15556;DHT22;7879;48.660;9.116;2024-03-25T15:27:17;11.30;90.30
15556;DHT22;7879;48.660;9.116;2024-03-25T15:29:42;11.30;89.50
15556;DHT22;7879;48.660;9.116;2024-03-25T15:32:08;11.30;89.70
15556;DHT22;7879;48.660;9.116;2024-03-25T15:34:34;11.30;88.30
15556;DHT22;7879;48.660;9.116;2024-03-25T15:37:00;11.20;88.20
15556;DHT22;7879;48.660;9.116;2024-03-25T15:39:26;11.20;88.70
15556;DHT22;7879;48.660;9.116;2024-03-25T15:41:52;11.20;87.60
15556;DHT22;7879;48.660;9.116;2024-03-25T15:44:18;11.20;88.40
15556;DHT22;7879;48.660;9.116;2024-03-25T15:46:44;11.20;88.50
15556;DHT22;7879;48.660;9.116;2024-03-25T15:49:09;11.20;87.20
15556;DHT22;7879;48.660;9.116;2024-03-25T15:51:35;11.10;87.40
15556;DHT22;7879;48.660;9.116;2024-03-25T15:54:01;11.10;87.70